sensor_id;sensor_type;location;lat;lon;timestamp;pressure;altitude;pressure_sealevel;temperature;humidity
64292;BME280;50628;51.008;13.658;2022-08-07T00:00:51;100676.34;;;14.15;61.10
64292;BME280;50628;51.008;13.658;2022-08-07T00:05:52;100679.09;;;14.14;61.00
64292;BME280;50628;51.008;13.658;2022-08-07T00:10:55;100678.50;;;14.10;61.50
64292;BME280;50628;51.008;13.658;2022-08-07T00:15:58;100666.03;;;14.02;61.87
64292;BME280;50628;51.008;13.658;2022-08-07T00:21:03;100675.00;;;13.89;62.41
64292;BME280;50628;51.008;13.658;2022-08-07T00:26:08;100675.72;;;13.79;62.50
64292;BME280;50628;51.008;13.658;2022-08-07T00:31:11;100675.50;;;13.71;62.47
64292;BME280;50628;51.008;13.658;2022-08-07T00:36:12;100670.16;;;13.50;63.57
64292;BME280;50628;51.008;13.658;2022-08-07T00:41:24;100663.38;;;13.59;63.38
64292;BME280;50628;51.008;13.658;2022-08-07T00:46:26;100661.25;;;13.41;63.74
64292;BME280;50628;51.008;13.658;2022-08-07T00:51:28;100660.66;;;13.38;63.77
64292;BME280;50628;51.008;13.658;2022-08-07T00:56:31;100662.19;;;13.52;63.55
64292;BME280;50628;51.008;13.658;2022-08-07T01:01:33;100660.31;;;13.31;64.26
64292;BME280;50628;51.008;13.658;2022-08-07T01:06:35;100659.69;;;13.28;64.61
64292;BME280;50628;51.008;13.658;2022-08-07T01:11:39;100662.50;;;12.91;66.14
64292;BME280;50628;51.008;13.658;2022-08-07T01:16:41;100659.75;;;12.92;66.25
64292;BME280;50628;51.008;13.658;2022-08-07T01:21:46;100655.28;;;13.06;65.96
64292;BME280;50628;51.008;13.658;2022-08-07T01:26:50;100659.41;;;12.86;66.23
64292;BME280;50628;51.008;13.658;2022-08-07T01:31:53;100654.28;;;12.84;66.52
64292;BME280;50628;51.008;13.658;2022-08-07T01:36:58;100655.44;;;12.69;66.43
64292;BME280;50628;51.008;13.658;2022-08-07T01:42:03;100662.38;;;12.46;67.54
64292;BME280;50628;51.008;13.658;2022-08-07T01:47:07;100650.31;;;12.67;67.11
64292;BME280;50628;51.008;13.658;2022-08-07T01:52:12;100649.81;;;12.62;66.46
64292;BME280;50628;51.008;13.658;2022-08-07T01:57:18;100645.88;;;12.45;67.20
64292;BME280;50628;51.008;13.658;2022-08-07T02:02:25;100655.28;;;12.24;68.24
64292;BME280;50628;51.008;13.658;2022-08-07T02:07:35;100646.94;;;12.43;67.55
64292;BME280;50628;51.008;13.658;2022-08-07T02:12:40;100657.94;;;12.35;68.02
64292;BME280;50628;51.008;13.658;2022-08-07T02:17:46;100648.00;;;12.40;68.07
64292;BME280;50628;51.008;13.658;2022-08-07T02:22:51;100663.81;;;12.02;69.34
64292;BME280;50628;51.008;13.658;2022-08-07T02:27:55;100657.84;;;12.12;69.28
64292;BME280;50628;51.008;13.658;2022-08-07T02:33:00;100660.78;;;12.08;69.27
64292;BME280;50628;51.008;13.658;2022-08-07T02:38:05;100666.44;;;12.02;69.48
64292;BME280;50628;51.008;13.658;2022-08-07T02:43:11;100667.44;;;11.88;69.64
64292;BME280;50628;51.008;13.658;2022-08-07T02:48:15;100657.28;;;11.83;70.04
64292;BME280;50628;51.008;13.658;2022-08-07T02:53:23;100659.59;;;11.88;70.06
64292;BME280;50628;51.008;13.658;2022-08-07T02:58:27;100658.31;;;11.94;69.41
64292;BME280;50628;51.008;13.658;2022-08-07T03:03:32;100661.44;;;11.86;70.13
64292;BME280;50628;51.008;13.658;2022-08-07T03:08:36;100660.72;;;11.84;70.30
64292;BME280;50628;51.008;13.658;2022-08-07T03:13:38;100648.72;;;11.81;70.21
64292;BME280;50628;51.008;13.658;2022-08-07T03:18:43;100645.09;;;11.71;70.49
64292;BME280;50628;51.008;13.658;2022-08-07T03:23:49;100649.22;;;11.62;70.94
64292;BME280;50628;51.008;13.658;2022-08-07T03:28:53;100647.78;;;11.45;71.94
64292;BME280;50628;51.008;13.658;2022-08-07T03:33:59;100648.94;;;11.54;71.36
64292;BME280;50628;51.008;13.658;2022-08-07T03:39:08;100643.41;;;11.46;71.27
64292;BME280;50628;51.008;13.658;2022-08-07T03:44:11;100638.41;;;11.43;71.82
64292;BME280;50628;51.008;13.658;2022-08-07T03:49:13;100642.28;;;11.37;72.49
64292;BME280;50628;51.008;13.658;2022-08-07T03:54:18;100641.25;;;11.27;72.66
64292;BME280;50628;51.008;13.658;2022-08-07T03:59:20;100629.47;;;11.34;72.27
64292;BME280;50628;51.008;13.658;2022-08-07T04:04:25;100645.41;;;11.30;72.51
64292;BME280;50628;51.008;13.658;2022-08-07T04:09:34;100644.06;;;11.24;72.59
64292;BME280;50628;51.008;13.658;2022-08-07T04:14:38;100646.34;;;11.29;72.78
64292;BME280;50628;51.008;13.658;2022-08-07T04:19:41;100650.00;;;11.13;72.83
64292;BME280;50628;51.008;13.658;2022-08-07T04:24:44;100647.50;;;11.24;72.66
64292;BME280;50628;51.008;13.658;2022-08-07T04:29:47;100654.16;;;11.29;72.40
64292;BME280;50628;51.008;13.658;2022-08-07T04:34:50;100652.72;;;11.24;72.72
64292;BME280;50628;51.008;13.658;2022-08-07T04:39:54;100649.16;;;11.25;72.70
64292;BME280;50628;51.008;13.658;2022-08-07T04:44:57;100643.03;;;11.14;73.05
64292;BME280;50628;51.008;13.658;2022-08-07T04:50:05;100654.78;;;11.32;72.75
64292;BME280;50628;51.008;13.658;2022-08-07T04:55:18;100655.59;;;11.45;72.49
64292;BME280;50628;51.008;13.658;2022-08-07T05:00:32;100648.59;;;11.59;71.84
64292;BME280;50628;51.008;13.658;2022-08-07T05:05:43;100650.09;;;11.74;71.42
64292;BME280;50628;51.008;13.658;2022-08-07T05:10:51;100652.28;;;11.93;70.56
64292;BME280;50628;51.008;13.658;2022-08-07T05:15:57;100651.56;;;12.15;69.99
64292;BME280;50628;51.008;13.658;2022-08-07T05:21:02;100658.88;;;12.34;69.03
64292;BME280;50628;51.008;13.658;2022-08-07T05:26:12;100661.31;;;12.48;69.04
64292;BME280;50628;51.008;13.658;2022-08-07T05:31:16;100651.75;;;12.71;67.99
64292;BME280;50628;51.008;13.658;2022-08-07T05:36:21;100666.22;;;13.11;66.44
64292;BME280;50628;51.008;13.658;2022-08-07T05:41:28;100665.28;;;13.23;66.17
64292;BME280;50628;51.008;13.658;2022-08-07T05:46:30;100661.25;;;13.53;64.96
64292;BME280;50628;51.008;13.658;2022-08-07T05:51:32;100656.69;;;13.77;64.51
64292;BME280;50628;51.008;13.658;2022-08-07T05:56:38;100660.06;;;14.12;63.20
64292;BME280;50628;51.008;13.658;2022-08-07T06:01:43;100657.69;;;14.41;62.64
64292;BME280;50628;51.008;13.658;2022-08-07T06:06:46;100654.69;;;14.45;62.39
64292;BME280;50628;51.008;13.658;2022-08-07T06:11:52;100649.88;;;14.83;60.90
64292;BME280;50628;51.008;13.658;2022-08-07T06:16:56;100644.91;;;15.10;60.53
64292;BME280;50628;51.008;13.658;2022-08-07T06:22:04;100651.50;;;14.74;60.69
64292;BME280;50628;51.008;13.658;2022-08-07T06:27:07;100642.25;;;15.31;59.63
64292;BME280;50628;51.008;13.658;2022-08-07T06:32:09;100636.91;;;15.83;56.94
64292;BME280;50628;51.008;13.658;2022-08-07T06:37:11;100641.22;;;16.23;55.05
64292;BME280;50628;51.008;13.658;2022-08-07T06:42:18;100643.97;;;16.51;54.24
64292;BME280;50628;51.008;13.658;2022-08-07T06:47:39;100638.69;;;16.80;53.05
64292;BME280;50628;51.008;13.658;2022-08-07T06:52:45;100641.44;;;17.25;51.80
64292;BME280;50628;51.008;13.658;2022-08-07T06:57:51;100634.28;;;17.45;51.34
64292;BME280;50628;51.008;13.658;2022-08-07T07:02:57;100628.19;;;17.17;51.64
64292;BME280;50628;51.008;13.658;2022-08-07T07:07:59;100632.00;;;17.60;51.05
64292;BME280;50628;51.008;13.658;2022-08-07T07:13:07;100629.50;;;17.59;50.78
64292;BME280;50628;51.008;13.658;2022-08-07T07:18:16;100641.03;;;17.58;50.25
64292;BME280;50628;51.008;13.658;2022-08-07T07:23:20;100617.06;;;17.79;49.85
64292;BME280;50628;51.008;13.658;2022-08-07T07:28:25;100615.41;;;18.31;50.12
64292;BME280;50628;51.008;13.658;2022-08-07T07:33:29;100610.59;;;18.71;47.79
64292;BME280;50628;51.008;13.658;2022-08-07T07:38:33;100615.44;;;18.75;47.17
64292;BME280;50628;51.008;13.658;2022-08-07T07:43:39;100607.44;;;18.85;46.17
64292;BME280;50628;51.008;13.658;2022-08-07T07:48:42;100608.28;;;18.68;45.69
64292;BME280;50628;51.008;13.658;2022-08-07T07:53:45;100603.47;;;19.15;45.19
64292;BME280;50628;51.008;13.658;2022-08-07T07:58:50;100599.81;;;19.08;45.01
64292;BME280;50628;51.008;13.658;2022-08-07T08:03:54;100600.19;;;19.21;44.36
64292;BME280;50628;51.008;13.658;2022-08-07T08:08:59;100598.25;;;19.40;41.88
64292;BME280;50628;51.008;13.658;2022-08-07T08:14:04;100604.22;;;19.42;42.13
64292;BME280;50628;51.008;13.658;2022-08-07T08:19:09;100600.72;;;19.33;41.22
64292;BME280;50628;51.008;13.658;2022-08-07T08:24:12;100604.53;;;19.89;39.29
64292;BME280;50628;51.008;13.658;2022-08-07T08:29:39;100590.16;;;20.33;38.98
64292;BME280;50628;51.008;13.658;2022-08-07T08:34:42;100589.34;;;20.24;38.69
64292;BME280;50628;51.008;13.658;2022-08-07T08:39:46;100584.69;;;20.51;37.21
64292;BME280;50628;51.008;13.658;2022-08-07T08:44:59;100592.25;;;20.79;35.63
64292;BME280;50628;51.008;13.658;2022-08-07T08:50:08;100580.84;;;20.78;34.31
64292;BME280;50628;51.008;13.658;2022-08-07T08:55:18;100587.28;;;20.92;34.91
64292;BME280;50628;51.008;13.658;2022-08-07T09:00:25;100578.84;;;20.88;34.66
64292;BME280;50628;51.008;13.658;2022-08-07T09:05:36;100569.38;;;21.33;34.19
64292;BME280;50628;51.008;13.658;2022-08-07T09:10:45;100586.44;;;21.39;34.65
64292;BME280;50628;51.008;13.658;2022-08-07T09:16:03;100573.88;;;21.33;34.53
64292;BME280;50628;51.008;13.658;2022-08-07T09:21:13;100562.22;;;21.50;34.33
64292;BME280;50628;51.008;13.658;2022-08-07T09:26:26;100561.41;;;21.73;34.39
64292;BME280;50628;51.008;13.658;2022-08-07T09:31:38;100558.25;;;21.77;34.71
64292;BME280;50628;51.008;13.658;2022-08-07T09:36:50;100555.38;;;21.25;34.95
64292;BME280;50628;51.008;13.658;2022-08-07T09:42:01;100548.06;;;21.27;34.84
64292;BME280;50628;51.008;13.658;2022-08-07T09:47:14;100544.63;;;20.87;35.72
64292;BME280;50628;51.008;13.658;2022-08-07T09:52:20;100538.75;;;21.70;34.98
64292;BME280;50628;51.008;13.658;2022-08-07T10:03:13;100513.41;;;21.91;34.32
64292;BME280;50628;51.008;13.658;2022-08-07T10:08:41;100510.72;;;21.53;34.71
64292;BME280;50628;51.008;13.658;2022-08-07T10:13:49;100508.66;;;21.40;35.36
64292;BME280;50628;51.008;13.658;2022-08-07T10:19:33;100496.69;;;21.44;34.90
64292;BME280;50628;51.008;13.658;2022-08-07T10:24:49;100491.78;;;21.79;34.30
64292;BME280;50628;51.008;13.658;2022-08-07T10:30:04;100477.13;;;22.59;32.31
64292;BME280;50628;51.008;13.658;2022-08-07T10:35:15;100472.50;;;22.08;33.22
64292;BME280;50628;51.008;13.658;2022-08-07T10:40:27;100470.06;;;22.36;32.37
64292;BME280;50628;51.008;13.658;2022-08-07T10:45:34;100468.94;;;22.16;32.54
64292;BME280;50628;51.008;13.658;2022-08-07T10:50:44;100457.50;;;22.75;31.59
64292;BME280;50628;51.008;13.658;2022-08-07T10:55:50;100460.47;;;23.38;30.98
64292;BME280;50628;51.008;13.658;2022-08-07T11:00:57;100452.59;;;22.57;31.05
64292;BME280;50628;51.008;13.658;2022-08-07T11:06:14;100444.22;;;22.75;30.39
64292;BME280;50628;51.008;13.658;2022-08-07T11:11:24;100439.16;;;23.74;28.81
64292;BME280;50628;51.008;13.658;2022-08-07T11:16:28;100429.22;;;24.17;28.07
64292;BME280;50628;51.008;13.658;2022-08-07T11:21:38;100429.06;;;23.69;27.79
64292;BME280;50628;51.008;13.658;2022-08-07T11:26:47;100419.06;;;23.71;28.15
64292;BME280;50628;51.008;13.658;2022-08-07T11:32:00;100410.81;;;23.88;27.97
64292;BME280;50628;51.008;13.658;2022-08-07T11:37:11;100405.78;;;24.89;26.36
64292;BME280;50628;51.008;13.658;2022-08-07T11:42:16;100398.94;;;24.60;26.69
64292;BME280;50628;51.008;13.658;2022-08-07T11:47:28;100402.81;;;25.65;25.60
64292;BME280;50628;51.008;13.658;2022-08-07T11:52:50;100395.53;;;26.26;24.92
64292;BME280;50628;51.008;13.658;2022-08-07T11:58:02;100395.25;;;26.41;23.97
64292;BME280;50628;51.008;13.658;2022-08-07T12:03:32;100384.50;;;25.09;25.39
64292;BME280;50628;51.008;13.658;2022-08-07T12:08:43;100364.38;;;26.65;23.78
64292;BME280;50628;51.008;13.658;2022-08-07T12:13:52;100367.22;;;26.18;24.46
64292;BME280;50628;51.008;13.658;2022-08-07T12:19:00;100374.06;;;25.14;25.73
64292;BME280;50628;51.008;13.658;2022-08-07T12:24:13;100365.88;;;26.86;23.37
64292;BME280;50628;51.008;13.658;2022-08-07T12:29:27;100351.88;;;27.47;22.44
64292;BME280;50628;51.008;13.658;2022-08-07T12:34:33;100350.19;;;26.96;23.32
64292;BME280;50628;51.008;13.658;2022-08-07T12:39:39;100353.56;;;26.46;24.31
64292;BME280;50628;51.008;13.658;2022-08-07T12:44:45;100341.50;;;25.65;24.94
64292;BME280;50628;51.008;13.658;2022-08-07T12:49:52;100339.25;;;27.04;23.46
64292;BME280;50628;51.008;13.658;2022-08-07T12:55:02;100332.00;;;27.80;22.17
64292;BME280;50628;51.008;13.658;2022-08-07T13:00:06;100331.06;;;26.74;23.77
64292;BME280;50628;51.008;13.658;2022-08-07T13:05:17;100336.88;;;26.12;23.89
64292;BME280;50628;51.008;13.658;2022-08-07T13:10:37;100335.88;;;27.15;22.66
64292;BME280;50628;51.008;13.658;2022-08-07T13:15:47;100314.63;;;27.89;21.46
64292;BME280;50628;51.008;13.658;2022-08-07T13:20:56;100308.09;;;28.52;21.00
64292;BME280;50628;51.008;13.658;2022-08-07T13:26:06;100305.41;;;28.94;20.75
64292;BME280;50628;51.008;13.658;2022-08-07T13:31:29;100296.28;;;28.95;20.54
64292;BME280;50628;51.008;13.658;2022-08-07T13:36:37;100285.03;;;28.51;21.32
64292;BME280;50628;51.008;13.658;2022-08-07T13:41:44;100282.63;;;28.61;21.13
64292;BME280;50628;51.008;13.658;2022-08-07T13:46:50;100283.00;;;28.77;20.80
64292;BME280;50628;51.008;13.658;2022-08-07T13:51:54;100276.44;;;29.26;19.96
64292;BME280;50628;51.008;13.658;2022-08-07T13:56:57;100269.53;;;29.54;19.55
64292;BME280;50628;51.008;13.658;2022-08-07T14:02:05;100264.03;;;28.90;20.21
64292;BME280;50628;51.008;13.658;2022-08-07T14:07:08;100264.50;;;29.58;19.57
64292;BME280;50628;51.008;13.658;2022-08-07T14:12:20;100267.34;;;30.49;18.37
64292;BME280;50628;51.008;13.658;2022-08-07T14:17:23;100255.97;;;29.61;19.53
64292;BME280;50628;51.008;13.658;2022-08-07T14:22:30;100259.16;;;28.45;21.05
64292;BME280;50628;51.008;13.658;2022-08-07T14:27:36;100258.31;;;30.09;18.88
64292;BME280;50628;51.008;13.658;2022-08-07T14:32:39;100248.13;;;29.83;19.19
64292;BME280;50628;51.008;13.658;2022-08-07T14:37:47;100244.00;;;30.49;18.41
64292;BME280;50628;51.008;13.658;2022-08-07T14:42:55;100241.38;;;31.83;17.66
64292;BME280;50628;51.008;13.658;2022-08-07T14:48:00;100236.06;;;31.27;17.52
64292;BME280;50628;51.008;13.658;2022-08-07T14:53:05;100238.66;;;31.00;18.42
64292;BME280;50628;51.008;13.658;2022-08-07T14:58:10;100233.66;;;30.92;18.88
64292;BME280;50628;51.008;13.658;2022-08-07T15:03:12;100240.91;;;30.57;18.52
64292;BME280;50628;51.008;13.658;2022-08-07T15:08:22;100237.81;;;30.49;18.28
64292;BME280;50628;51.008;13.658;2022-08-07T15:13:27;100234.00;;;30.45;18.06
64292;BME280;50628;51.008;13.658;2022-08-07T15:18:33;100230.69;;;30.26;18.69
64292;BME280;50628;51.008;13.658;2022-08-07T15:23:37;100233.69;;;29.72;18.89
64292;BME280;50628;51.008;13.658;2022-08-07T15:28:42;100233.72;;;30.29;18.44
64292;BME280;50628;51.008;13.658;2022-08-07T15:33:44;100229.50;;;29.52;19.50
64292;BME280;50628;51.008;13.658;2022-08-07T15:38:47;100220.72;;;29.28;19.17
64292;BME280;50628;51.008;13.658;2022-08-07T15:43:57;100222.59;;;29.16;19.94
64292;BME280;50628;51.008;13.658;2022-08-07T15:49:02;100210.22;;;29.15;19.24
64292;BME280;50628;51.008;13.658;2022-08-07T15:54:04;100205.66;;;28.92;19.70
64292;BME280;50628;51.008;13.658;2022-08-07T15:59:12;100216.34;;;27.85;20.69
64292;BME280;50628;51.008;13.658;2022-08-07T16:04:18;100208.50;;;27.09;21.96
64292;BME280;50628;51.008;13.658;2022-08-07T16:09:23;100203.28;;;26.71;22.27
64292;BME280;50628;51.008;13.658;2022-08-07T16:14:36;100205.72;;;26.54;22.01
64292;BME280;50628;51.008;13.658;2022-08-07T16:20:00;100199.56;;;26.53;22.33
64292;BME280;50628;51.008;13.658;2022-08-07T16:25:12;100197.50;;;26.49;22.69
64292;BME280;50628;51.008;13.658;2022-08-07T16:30:20;100201.00;;;26.43;22.43
64292;BME280;50628;51.008;13.658;2022-08-07T16:35:25;100204.16;;;26.01;22.67
64292;BME280;50628;51.008;13.658;2022-08-07T16:46:44;100197.97;;;26.07;23.34
64292;BME280;50628;51.008;13.658;2022-08-07T16:51:51;100202.38;;;25.88;23.01
64292;BME280;50628;51.008;13.658;2022-08-07T16:57:06;100187.66;;;25.73;23.24
64292;BME280;50628;51.008;13.658;2022-08-07T17:07:46;100204.38;;;25.41;23.68
64292;BME280;50628;51.008;13.658;2022-08-07T17:12:52;100204.44;;;25.28;24.47
64292;BME280;50628;51.008;13.658;2022-08-07T17:18:06;100195.81;;;25.13;24.46
64292;BME280;50628;51.008;13.658;2022-08-07T17:23:24;100199.72;;;25.03;24.41
64292;BME280;50628;51.008;13.658;2022-08-07T17:28:33;100200.97;;;24.81;24.90
64292;BME280;50628;51.008;13.658;2022-08-07T17:33:46;100207.31;;;25.00;24.64
64292;BME280;50628;51.008;13.658;2022-08-07T17:38:59;100202.19;;;24.98;24.45
64292;BME280;50628;51.008;13.658;2022-08-07T17:44:07;100205.69;;;24.92;24.71
64292;BME280;50628;51.008;13.658;2022-08-07T17:49:18;100194.84;;;24.47;25.75
64292;BME280;50628;51.008;13.658;2022-08-07T17:54:24;100199.34;;;24.60;25.74
64292;BME280;50628;51.008;13.658;2022-08-07T17:59:33;100202.53;;;24.22;26.45
64292;BME280;50628;51.008;13.658;2022-08-07T18:04:43;100194.56;;;24.22;26.25
64292;BME280;50628;51.008;13.658;2022-08-07T18:09:53;100193.69;;;24.08;26.89
64292;BME280;50628;51.008;13.658;2022-08-07T18:15:00;100204.69;;;23.85;27.31
64292;BME280;50628;51.008;13.658;2022-08-07T18:20:09;100200.03;;;23.94;27.45
64292;BME280;50628;51.008;13.658;2022-08-07T18:25:16;100201.06;;;24.00;27.45
64292;BME280;50628;51.008;13.658;2022-08-07T18:30:28;100204.34;;;24.02;27.26
64292;BME280;50628;51.008;13.658;2022-08-07T18:35:37;100212.31;;;24.02;28.27
64292;BME280;50628;51.008;13.658;2022-08-07T18:40:53;100224.50;;;23.83;28.18
64292;BME280;50628;51.008;13.658;2022-08-07T18:46:03;100227.16;;;23.48;29.40
64292;BME280;50628;51.008;13.658;2022-08-07T18:51:16;100226.06;;;23.29;30.74
64292;BME280;50628;51.008;13.658;2022-08-07T18:56:31;100233.44;;;23.05;30.74
64292;BME280;50628;51.008;13.658;2022-08-07T19:01:38;100243.47;;;22.60;31.28
64292;BME280;50628;51.008;13.658;2022-08-07T19:06:47;100253.88;;;22.40;31.70
64292;BME280;50628;51.008;13.658;2022-08-07T19:12:04;100255.38;;;22.50;31.42
64292;BME280;50628;51.008;13.658;2022-08-07T19:17:14;100261.88;;;22.47;31.56
64292;BME280;50628;51.008;13.658;2022-08-07T19:22:21;100278.59;;;22.26;32.08
64292;BME280;50628;51.008;13.658;2022-08-07T19:27:25;100275.78;;;22.13;33.13
64292;BME280;50628;51.008;13.658;2022-08-07T19:32:31;100281.22;;;21.60;34.84
64292;BME280;50628;51.008;13.658;2022-08-07T19:37:36;100282.59;;;21.33;35.57
64292;BME280;50628;51.008;13.658;2022-08-07T19:42:40;100276.53;;;21.09;36.26
64292;BME280;50628;51.008;13.658;2022-08-07T19:47:46;100295.91;;;20.87;36.92
64292;BME280;50628;51.008;13.658;2022-08-07T19:52:49;100284.91;;;20.98;36.50
64292;BME280;50628;51.008;13.658;2022-08-07T19:57:55;100287.84;;;20.57;37.10
64292;BME280;50628;51.008;13.658;2022-08-07T20:03:00;100292.78;;;20.29;37.52
64292;BME280;50628;51.008;13.658;2022-08-07T20:08:07;100289.03;;;20.15;38.54
64292;BME280;50628;51.008;13.658;2022-08-07T20:13:15;100290.09;;;20.06;38.36
64292;BME280;50628;51.008;13.658;2022-08-07T20:18:18;100291.78;;;19.91;40.33
64292;BME280;50628;51.008;13.658;2022-08-07T20:23:22;100302.19;;;19.92;39.91
64292;BME280;50628;51.008;13.658;2022-08-07T20:28:26;100306.53;;;19.77;39.63
64292;BME280;50628;51.008;13.658;2022-08-07T20:33:31;100306.53;;;19.60;40.80
64292;BME280;50628;51.008;13.658;2022-08-07T20:38:36;100309.00;;;19.62;40.12
64292;BME280;50628;51.008;13.658;2022-08-07T20:43:39;100313.78;;;19.66;41.34
64292;BME280;50628;51.008;13.658;2022-08-07T20:48:41;100311.69;;;19.37;42.49
64292;BME280;50628;51.008;13.658;2022-08-07T20:53:45;100318.63;;;19.06;42.89
64292;BME280;50628;51.008;13.658;2022-08-07T20:58:49;100314.28;;;18.72;43.19
64292;BME280;50628;51.008;13.658;2022-08-07T21:03:53;100318.88;;;18.62;43.50
64292;BME280;50628;51.008;13.658;2022-08-07T21:09:01;100325.47;;;18.66;43.46
64292;BME280;50628;51.008;13.658;2022-08-07T21:14:08;100327.13;;;18.67;43.45
64292;BME280;50628;51.008;13.658;2022-08-07T21:19:11;100338.78;;;18.48;44.15
64292;BME280;50628;51.008;13.658;2022-08-07T21:24:17;100339.03;;;18.28;44.75
64292;BME280;50628;51.008;13.658;2022-08-07T21:29:27;100339.94;;;18.03;45.85
64292;BME280;50628;51.008;13.658;2022-08-07T21:34:32;100350.44;;;17.94;45.72
64292;BME280;50628;51.008;13.658;2022-08-07T21:39:45;100345.78;;;17.88;45.86
64292;BME280;50628;51.008;13.658;2022-08-07T21:45:07;100341.50;;;17.87;46.27
64292;BME280;50628;51.008;13.658;2022-08-07T21:50:16;100350.69;;;17.83;46.26
64292;BME280;50628;51.008;13.658;2022-08-07T21:55:24;100350.25;;;17.70;46.47
64292;BME280;50628;51.008;13.658;2022-08-07T22:00:28;100361.63;;;17.79;46.24
64292;BME280;50628;51.008;13.658;2022-08-07T22:05:41;100358.91;;;17.62;47.15
64292;BME280;50628;51.008;13.658;2022-08-07T22:10:47;100352.69;;;17.45;47.56
64292;BME280;50628;51.008;13.658;2022-08-07T22:15:56;100358.63;;;17.21;48.25
64292;BME280;50628;51.008;13.658;2022-08-07T22:21:05;100361.38;;;16.84;49.31
64292;BME280;50628;51.008;13.658;2022-08-07T22:26:16;100358.31;;;16.89;49.61
64292;BME280;50628;51.008;13.658;2022-08-07T22:31:26;100362.50;;;16.81;49.82
64292;BME280;50628;51.008;13.658;2022-08-07T22:36:35;100357.34;;;16.62;50.66
64292;BME280;50628;51.008;13.658;2022-08-07T22:41:44;100365.09;;;16.63;50.48
64292;BME280;50628;51.008;13.658;2022-08-07T22:47:11;100364.03;;;16.74;50.67
64292;BME280;50628;51.008;13.658;2022-08-07T22:52:27;100356.81;;;16.58;50.88
64292;BME280;50628;51.008;13.658;2022-08-07T22:57:57;100361.91;;;16.60;50.72
64292;BME280;50628;51.008;13.658;2022-08-07T23:03:31;100365.50;;;16.41;51.54
64292;BME280;50628;51.008;13.658;2022-08-07T23:08:51;100362.84;;;16.13;52.19
64292;BME280;50628;51.008;13.658;2022-08-07T23:14:09;100365.47;;;16.13;52.30
64292;BME280;50628;51.008;13.658;2022-08-07T23:19:22;100358.53;;;16.12;52.27
64292;BME280;50628;51.008;13.658;2022-08-07T23:24:49;100367.22;;;16.22;52.26
64292;BME280;50628;51.008;13.658;2022-08-07T23:30:05;100367.13;;;16.14;53.90
64292;BME280;50628;51.008;13.658;2022-08-07T23:35:12;100372.03;;;15.90;54.47
64292;BME280;50628;51.008;13.658;2022-08-07T23:40:27;100370.50;;;15.87;54.29
64292;BME280;50628;51.008;13.658;2022-08-07T23:45:39;100380.16;;;15.96;54.29
64292;BME280;50628;51.008;13.658;2022-08-07T23:50:46;100382.59;;;15.70;54.79
64292;BME280;50628;51.008;13.658;2022-08-07T23:55:54;100377.03;;;15.64;54.56
